createdAt,value
2022-11-24T00:01:08.984Z,2.10
2022-11-24T00:03:37.287Z,1.63
2022-11-24T00:06:07.426Z,2.40
2022-11-24T00:08:35.386Z,2.20
2022-11-24T00:11:07.378Z,1.90
2022-11-24T00:13:35.812Z,2.00
2022-11-24T00:16:10.849Z,2.10
2022-11-24T00:18:39.361Z,2.13
2022-11-24T00:21:07.602Z,2.07
2022-11-24T00:23:35.658Z,2.53
2022-11-24T00:26:08.126Z,2.63
2022-11-24T00:28:37.597Z,2.50
2022-11-24T00:31:06.953Z,2.00
2022-11-24T00:33:36.178Z,2.30
2022-11-24T00:36:04.055Z,2.00
2022-11-24T00:38:31.927Z,2.03
2022-11-24T00:40:59.779Z,2.27
2022-11-24T00:43:27.636Z,2.33
2022-11-24T00:45:55.599Z,2.50
2022-11-24T00:48:24.096Z,2.40
2022-11-24T00:51:01.483Z,2.23
2022-11-24T00:53:29.708Z,2.33
2022-11-24T00:55:57.578Z,2.23
2022-11-24T00:58:26.040Z,2.17
2022-11-24T01:00:54.348Z,3.40
2022-11-24T01:03:22.941Z,2.23
2022-11-24T01:05:50.794Z,2.20
2022-11-24T01:08:20.060Z,1.90
2022-11-24T01:10:47.902Z,2.63
2022-11-24T01:13:15.771Z,2.80
2022-11-24T01:15:43.652Z,2.17
2022-11-24T01:18:11.570Z,2.60
2022-11-24T01:20:39.440Z,1.90
2022-11-24T01:23:07.807Z,1.97
2022-11-24T01:25:40.535Z,2.97
2022-11-24T01:28:08.405Z,2.30
2022-11-24T01:30:36.312Z,2.30
2022-11-24T01:33:05.063Z,2.33
2022-11-24T01:35:32.926Z,2.70
2022-11-24T01:38:00.764Z,2.40
2022-11-24T01:40:28.626Z,2.70
2022-11-24T01:42:57.823Z,4.70
2022-11-24T01:45:34.600Z,2.10
2022-11-24T01:48:05.575Z,2.73
2022-11-24T01:50:35.952Z,2.40
2022-11-24T01:53:04.525Z,2.37
2022-11-24T01:55:37.559Z,2.60
2022-11-24T01:58:09.829Z,2.23
2022-11-24T02:00:41.192Z,3.20
2022-11-24T02:03:09.567Z,2.90
2022-11-24T02:05:41.501Z,3.30
2022-11-24T02:08:14.490Z,2.57
2022-11-24T02:10:43.733Z,3.00
2022-11-24T02:13:13.863Z,2.30
2022-11-24T02:15:41.764Z,2.90
2022-11-24T02:18:09.890Z,3.10
2022-11-24T02:20:38.084Z,2.30
2022-11-24T02:23:16.474Z,2.40
2022-11-24T02:25:52.918Z,2.40
2022-11-24T02:28:24.457Z,2.50
2022-11-24T02:30:53.380Z,2.47
2022-11-24T02:33:22.415Z,2.40
2022-11-24T02:35:50.439Z,2.33
2022-11-24T02:38:18.499Z,2.50
2022-11-24T02:40:49.762Z,2.83
2022-11-24T02:43:21.042Z,2.60
2022-11-24T02:45:50.585Z,2.60
2022-11-24T02:48:18.669Z,2.73
2022-11-24T02:50:46.509Z,3.23
2022-11-24T02:53:14.354Z,2.40
2022-11-24T02:55:42.195Z,2.70
2022-11-24T02:58:10.082Z,3.40
2022-11-24T03:00:37.928Z,2.53
2022-11-24T03:03:07.307Z,2.77
2022-11-24T03:05:35.262Z,3.10
2022-11-24T03:08:03.155Z,2.70
2022-11-24T03:10:31.155Z,2.63
2022-11-24T03:12:59.057Z,2.57
2022-11-24T03:15:26.967Z,3.13
2022-11-24T03:17:56.619Z,2.53
2022-11-24T03:20:26.773Z,3.03
2022-11-24T03:22:54.634Z,2.80
2022-11-24T03:25:22.508Z,3.30
2022-11-24T03:27:51.157Z,3.23
2022-11-24T03:30:19.096Z,3.03
2022-11-24T03:32:46.957Z,2.77
2022-11-24T03:35:14.881Z,2.73
2022-11-24T03:37:44.079Z,2.30
2022-11-24T03:40:12.584Z,2.13
2022-11-24T03:42:41.318Z,3.20
2022-11-24T03:45:44.134Z,2.40
2022-11-24T03:47:58.113Z,2.70
2022-11-24T03:50:25.999Z,3.13
2022-11-24T03:52:55.200Z,2.33
2022-11-24T03:55:23.058Z,2.90
2022-11-24T03:57:51.067Z,3.33
2022-11-24T04:00:19.400Z,2.93
2022-11-24T04:02:48.187Z,2.87
2022-11-24T04:05:16.246Z,3.57
2022-11-24T04:07:44.184Z,3.43
2022-11-24T04:10:13.696Z,3.20
2022-11-24T04:12:47.175Z,3.03
2022-11-24T04:15:17.231Z,2.73
2022-11-24T04:17:45.636Z,2.93
2022-11-24T04:20:14.192Z,3.40
2022-11-24T04:22:42.412Z,3.00
2022-11-24T04:25:11.176Z,3.13
2022-11-24T04:27:40.547Z,3.20
2022-11-24T04:30:09.476Z,2.80
2022-11-24T04:32:37.949Z,3.63
2022-11-24T04:35:06.498Z,3.50
2022-11-24T04:37:35.731Z,2.83
2022-11-24T04:40:03.831Z,3.27
2022-11-24T04:42:31.715Z,3.50
2022-11-24T04:45:00.927Z,3.40
2022-11-24T04:47:29.195Z,3.00
2022-11-24T04:49:57.076Z,3.43
2022-11-24T04:52:26.377Z,4.37
2022-11-24T04:54:54.315Z,4.50
2022-11-24T04:57:24.363Z,3.00
2022-11-24T04:59:52.692Z,5.00
2022-11-24T05:02:22.551Z,3.40
2022-11-24T05:04:50.949Z,3.10
2022-11-24T05:07:19.784Z,4.30
2022-11-24T05:10:05.171Z,3.60
2022-11-24T05:12:33.047Z,3.90
2022-11-24T05:15:01.777Z,4.30
2022-11-24T05:17:32.299Z,3.47
2022-11-24T05:20:00.363Z,3.67
2022-11-24T05:22:30.314Z,3.83
2022-11-24T05:24:58.231Z,2.97
2022-11-24T05:27:26.194Z,2.93
2022-11-24T05:29:54.122Z,3.83
2022-11-24T05:32:22.017Z,3.40
2022-11-24T05:34:51.866Z,3.23
2022-11-24T05:37:19.752Z,3.80
2022-11-24T05:39:47.884Z,3.53
2022-11-24T05:42:33.322Z,3.77
2022-11-24T05:45:01.180Z,3.10
2022-11-24T05:47:29.033Z,3.63
2022-11-24T05:49:58.274Z,3.23
2022-11-24T05:52:26.133Z,3.00
2022-11-24T05:54:55.059Z,3.30
2022-11-24T05:57:23.127Z,3.07
2022-11-24T05:59:50.981Z,3.00
2022-11-24T06:02:19.112Z,3.70
2022-11-24T06:04:47.225Z,3.00
2022-11-24T06:07:17.004Z,3.73
2022-11-24T06:09:45.505Z,3.57
2022-11-24T06:12:14.177Z,3.33
2022-11-24T06:14:42.564Z,3.50
2022-11-24T06:17:11.572Z,3.30
2022-11-24T06:19:42.038Z,3.60
2022-11-24T06:22:10.351Z,3.80
2022-11-24T06:24:39.557Z,3.77
2022-11-24T06:27:07.725Z,3.37
2022-11-24T06:29:35.600Z,3.37
2022-11-24T06:32:03.503Z,4.10
2022-11-24T06:34:31.600Z,2.77
2022-11-24T06:36:59.594Z,2.73
2022-11-24T06:39:27.502Z,3.10
2022-11-24T06:41:56.750Z,2.90
2022-11-24T06:44:24.909Z,3.03
2022-11-24T06:46:52.838Z,4.30
2022-11-24T06:49:20.698Z,3.30
2022-11-24T06:51:48.574Z,2.83
2022-11-24T06:54:18.427Z,3.20
2022-11-24T06:56:46.288Z,3.80
2022-11-24T06:59:19.993Z,3.50
2022-11-24T07:01:48.398Z,3.03
2022-11-24T07:04:16.895Z,2.33
2022-11-24T07:06:44.823Z,2.87
2022-11-24T07:09:14.346Z,3.20
2022-11-24T07:11:42.807Z,3.07
2022-11-24T07:14:11.058Z,2.90
2022-11-24T07:16:40.742Z,2.60
2022-11-24T07:19:09.796Z,2.53
2022-11-24T07:21:37.674Z,3.93
2022-11-24T07:24:06.288Z,2.80
2022-11-24T07:26:37.233Z,3.10
2022-11-24T07:29:05.778Z,3.20
2022-11-24T07:31:33.788Z,3.10
2022-11-24T07:34:03.030Z,2.77
2022-11-24T07:36:30.928Z,2.37
2022-11-24T07:38:58.862Z,2.70
2022-11-24T07:41:26.870Z,2.77
2022-11-24T07:43:54.739Z,2.60
2022-11-24T07:46:22.640Z,2.60
2022-11-24T07:48:50.598Z,2.80
2022-11-24T07:51:19.788Z,2.90
2022-11-24T07:53:47.747Z,2.67
2022-11-24T07:56:15.666Z,3.13
2022-11-24T07:58:45.977Z,2.43
2022-11-24T08:01:18.833Z,2.33
2022-11-24T08:03:47.969Z,2.90
2022-11-24T08:06:25.102Z,2.80
2022-11-24T08:08:55.834Z,2.57
2022-11-24T08:11:24.167Z,2.77
2022-11-24T08:13:52.079Z,3.27
2022-11-24T08:16:21.221Z,2.47
2022-11-24T08:18:51.954Z,2.73
2022-11-24T08:21:20.344Z,2.60
2022-11-24T08:23:48.492Z,3.40
2022-11-24T08:26:19.353Z,2.20
2022-11-24T08:28:48.438Z,2.00
2022-11-24T08:31:18.659Z,1.80
2022-11-24T08:33:47.610Z,2.60
2022-11-24T08:36:17.871Z,2.40
2022-11-24T08:38:46.396Z,2.70
2022-11-24T08:41:17.366Z,2.47
2022-11-24T08:43:45.206Z,2.10
2022-11-24T08:46:16.882Z,2.73
2022-11-24T08:48:45.398Z,2.10
2022-11-24T08:51:15.069Z,2.60
2022-11-24T08:53:43.827Z,2.80
2022-11-24T08:56:12.882Z,2.13
2022-11-24T08:58:42.731Z,3.00
2022-11-24T09:01:12.375Z,2.47
2022-11-24T09:03:44.939Z,2.33
2022-11-24T09:06:14.604Z,3.27
2022-11-24T09:08:42.714Z,2.53
2022-11-24T09:11:12.803Z,2.47
2022-11-24T09:13:42.149Z,1.90
2022-11-24T09:16:12.817Z,2.80
2022-11-24T09:18:40.786Z,2.80
2022-11-24T09:21:09.687Z,2.73
2022-11-24T09:23:39.383Z,2.07
2022-11-24T09:26:08.659Z,2.30
2022-11-24T09:28:36.911Z,2.60
2022-11-24T09:31:08.080Z,2.10
2022-11-24T09:33:36.304Z,3.07
2022-11-24T09:36:04.959Z,2.60
2022-11-24T09:38:33.121Z,2.67
2022-11-24T09:41:27.670Z,3.07
2022-11-24T09:44:02.145Z,2.90
2022-11-24T09:46:37.270Z,3.27
2022-11-24T09:49:06.965Z,2.47
2022-11-24T09:51:35.399Z,3.50
2022-11-24T09:54:08.302Z,3.33
2022-11-24T09:56:40.550Z,2.70
2022-11-24T09:59:15.594Z,3.00
2022-11-24T10:01:46.274Z,3.40
2022-11-24T10:04:18.937Z,3.10
2022-11-24T10:06:51.064Z,2.80
2022-11-24T10:09:49.266Z,2.53
2022-11-24T10:12:31.416Z,2.73
2022-11-24T10:15:27.393Z,2.67
2022-11-24T10:18:31.803Z,3.23
2022-11-24T10:21:11.783Z,2.33
2022-11-24T10:23:53.043Z,3.20
2022-11-24T10:26:27.586Z,2.40
2022-11-24T10:28:56.871Z,2.47
2022-11-24T10:31:30.686Z,2.63
2022-11-24T10:34:04.882Z,2.23
2022-11-24T10:36:41.102Z,2.13
2022-11-24T10:39:16.203Z,2.90
2022-11-24T10:41:49.540Z,2.13
2022-11-24T10:44:17.400Z,3.13
2022-11-24T10:46:45.542Z,2.03
2022-11-24T10:49:20.320Z,2.40
2022-11-24T10:51:59.398Z,2.23
2022-11-24T10:54:27.270Z,2.70
2022-11-24T10:56:56.177Z,3.03
2022-11-24T10:59:33.219Z,2.37
2022-11-24T11:02:01.879Z,2.87
2022-11-24T11:04:33.120Z,2.10
2022-11-24T11:07:16.477Z,2.50
2022-11-24T11:09:44.372Z,2.20
2022-11-24T11:15:27.981Z,4.90
2022-11-24T11:17:59.387Z,3.67
2022-11-24T11:20:32.558Z,2.83
2022-11-24T11:23:04.209Z,3.40
2022-11-24T11:25:34.977Z,2.30
2022-11-24T11:28:23.300Z,2.60
2022-11-24T11:34:03.673Z,2.67
2022-11-24T11:36:34.529Z,2.03
2022-11-24T11:39:04.787Z,2.30
2022-11-24T11:41:35.823Z,2.20
2022-11-24T11:44:14.459Z,1.93
2022-11-24T11:46:44.566Z,2.07
2022-11-24T11:49:13.996Z,2.37
2022-11-24T11:53:53.354Z,1.80
2022-11-24T11:56:25.973Z,2.00
2022-11-24T11:59:27.544Z,3.00
2022-11-24T12:02:29.033Z,2.60
2022-11-24T12:05:00.260Z,3.00
2022-11-24T12:07:49.523Z,2.40
2022-11-24T12:10:29.773Z,2.03
2022-11-24T12:13:13.087Z,2.10
2022-11-24T12:15:44.935Z,2.50
2022-11-24T12:18:56.518Z,2.53
2022-11-24T12:21:26.930Z,2.23
2022-11-24T12:24:09.925Z,2.20
2022-11-24T12:26:46.166Z,2.50
2022-11-24T12:29:43.624Z,2.10
2022-11-24T12:32:22.607Z,2.63
2022-11-24T12:34:56.924Z,2.37
2022-11-24T12:37:49.890Z,1.83
2022-11-24T12:40:29.320Z,2.20
2022-11-24T12:43:08.851Z,2.00
2022-11-24T12:45:45.793Z,2.23
2022-11-24T12:48:36.746Z,2.10
2022-11-24T12:51:07.425Z,1.90
2022-11-24T12:53:38.366Z,2.10
2022-11-24T12:56:08.315Z,2.43
2022-11-24T12:58:43.120Z,1.97
2022-11-24T13:01:19.253Z,2.13
2022-11-24T13:04:01.449Z,2.37
2022-11-24T13:06:36.185Z,2.10
2022-11-24T13:09:10.074Z,1.80
2022-11-24T13:11:41.781Z,2.17
2022-11-24T13:14:18.498Z,2.10
2022-11-24T13:19:45.611Z,2.27
2022-11-24T13:22:23.959Z,2.07
2022-11-24T13:25:14.346Z,2.33
2022-11-24T13:27:44.689Z,2.00
2022-11-24T13:30:52.447Z,1.80
2022-11-24T13:33:39.668Z,2.20
2022-11-24T13:36:35.956Z,1.90
2022-11-24T13:39:06.076Z,1.50
2022-11-24T13:42:06.996Z,2.13
2022-11-24T13:44:54.740Z,2.27
2022-11-24T13:47:43.741Z,1.90
2022-11-24T13:50:39.201Z,1.67
2022-11-24T13:53:11.167Z,1.80
2022-11-24T13:55:41.156Z,2.07
2022-11-24T13:58:40.115Z,1.70
2022-11-24T14:01:19.088Z,1.47
2022-11-24T14:04:28.796Z,2.10
2022-11-24T14:06:48.727Z,1.53
2022-11-24T14:09:25.117Z,2.00
2022-11-24T14:12:03.900Z,1.80
2022-11-24T14:14:31.752Z,2.43
2022-11-24T14:17:23.923Z,1.77
2022-11-24T14:19:53.837Z,1.77
2022-11-24T14:22:26.686Z,2.20
2022-11-24T14:24:56.519Z,2.67
2022-11-24T14:27:30.287Z,2.03
2022-11-24T14:30:00.492Z,3.00
2022-11-24T14:32:28.701Z,3.60
2022-11-24T14:34:57.004Z,3.57
2022-11-24T14:37:26.440Z,5.17
2022-11-24T14:39:54.377Z,7.70
2022-11-24T14:42:24.128Z,4.23
2022-11-24T14:44:56.453Z,4.00
2022-11-24T14:47:31.811Z,2.33
2022-11-24T14:50:10.032Z,2.40
2022-11-24T14:52:48.307Z,2.53
2022-11-24T14:55:27.844Z,2.40
2022-11-24T14:57:55.853Z,1.87
2022-11-24T15:00:28.894Z,3.83
2022-11-24T15:03:08.815Z,2.20
2022-11-24T15:05:53.040Z,2.40
2022-11-24T15:08:23.426Z,2.50
2022-11-24T15:10:58.519Z,3.60
2022-11-24T15:13:27.048Z,3.47
2022-11-24T15:16:02.798Z,3.63
2022-11-24T15:18:37.370Z,4.20
2022-11-24T15:21:05.300Z,5.37
2022-11-24T15:23:35.321Z,5.10
2022-11-24T15:26:30.221Z,4.80
2022-11-24T15:29:00.008Z,4.83
2022-11-24T15:31:27.958Z,2.90
2022-11-24T15:33:55.950Z,2.27
2022-11-24T15:36:23.819Z,2.50
2022-11-24T15:38:53.076Z,2.40
2022-11-24T15:41:22.935Z,2.53
2022-11-24T15:43:51.032Z,2.57
2022-11-24T15:46:19.259Z,2.33
2022-11-24T15:48:47.153Z,2.63
2022-11-24T15:51:16.020Z,4.07
2022-11-24T15:53:47.209Z,3.23
2022-11-24T15:56:23.964Z,3.93
2022-11-24T15:58:51.994Z,3.60
2022-11-24T16:01:21.287Z,3.70
2022-11-24T16:03:49.594Z,5.27
2022-11-24T16:06:24.776Z,5.10
2022-11-24T16:08:53.576Z,5.40
2022-11-24T16:11:22.938Z,4.67
2022-11-24T16:13:53.222Z,6.30
2022-11-24T16:16:22.789Z,5.40
2022-11-24T16:18:50.831Z,5.67
2022-11-24T16:21:18.960Z,5.03
2022-11-24T16:23:47.763Z,5.10
2022-11-24T16:26:15.790Z,5.33
2022-11-24T16:28:45.716Z,5.90
2022-11-24T16:31:15.653Z,8.20
2022-11-24T16:33:44.784Z,7.80
2022-11-24T16:36:12.778Z,8.40
2022-11-24T16:38:40.643Z,7.23
2022-11-24T16:41:10.428Z,5.40
2022-11-24T16:43:38.796Z,6.47
2022-11-24T16:46:18.765Z,4.60
2022-11-24T16:48:46.980Z,4.80
2022-11-24T16:51:15.600Z,5.63
2022-11-24T16:53:43.846Z,4.60
2022-11-24T16:56:11.881Z,5.50
2022-11-24T16:58:41.641Z,7.07
2022-11-24T17:01:13.445Z,6.60
2022-11-24T17:03:41.971Z,7.60
2022-11-24T17:06:12.266Z,8.00
2022-11-24T17:08:41.448Z,8.30
2022-11-24T17:11:09.829Z,6.20
2022-11-24T17:13:38.339Z,5.70
2022-11-24T17:16:06.961Z,6.10
2022-11-24T17:18:36.557Z,5.40
2022-11-24T17:21:09.554Z,5.50
2022-11-24T17:23:38.798Z,5.03
2022-11-24T17:26:08.876Z,7.23
2022-11-24T17:28:37.381Z,6.70
2022-11-24T17:31:09.065Z,6.63
2022-11-24T17:33:38.335Z,7.60
2022-11-24T17:36:07.557Z,5.80
2022-11-24T17:38:37.358Z,5.57
2022-11-24T17:41:05.737Z,7.07
2022-11-24T17:43:33.724Z,6.57
2022-11-24T17:46:04.247Z,7.03
2022-11-24T17:48:32.713Z,8.10
2022-11-24T17:51:03.427Z,7.20
2022-11-24T17:53:31.979Z,7.00
2022-11-24T17:56:00.980Z,8.20
2022-11-24T17:58:29.130Z,7.90
2022-11-24T18:00:57.221Z,5.60
2022-11-24T18:03:25.581Z,6.40
2022-11-24T18:05:53.431Z,6.23
2022-11-24T18:08:23.976Z,6.90
2022-11-24T18:10:52.020Z,6.10
2022-11-24T18:13:48.438Z,6.80
2022-11-24T18:16:09.757Z,7.53
2022-11-24T18:18:40.265Z,4.83
2022-11-24T18:21:12.668Z,3.53
2022-11-24T18:23:43.260Z,5.00
2022-11-24T18:26:14.771Z,5.50
2022-11-24T18:28:43.215Z,4.80
2022-11-24T18:31:12.938Z,5.63
2022-11-24T18:33:42.512Z,5.47
2022-11-24T18:36:13.605Z,5.67
2022-11-24T18:38:42.916Z,7.27
2022-11-24T18:41:13.660Z,5.63
2022-11-24T18:43:42.376Z,4.53
2022-11-24T18:46:13.474Z,5.20
2022-11-24T18:48:41.985Z,4.27
2022-11-24T18:51:14.510Z,5.20
2022-11-24T18:53:44.928Z,6.60
2022-11-24T18:56:14.588Z,5.30
2022-11-24T18:58:42.822Z,5.10
2022-11-24T19:01:12.784Z,5.80
2022-11-24T19:03:47.824Z,6.37
2022-11-24T19:06:18.439Z,5.80
2022-11-24T19:08:48.328Z,5.30
2022-11-24T19:11:20.549Z,5.07
2022-11-24T19:13:49.236Z,3.90
2022-11-24T19:16:17.828Z,4.97
2022-11-24T19:18:50.368Z,5.10
2022-11-24T19:21:20.593Z,4.07
2022-11-24T19:23:50.147Z,3.47
2022-11-24T19:26:18.543Z,5.17
2022-11-24T19:28:46.549Z,7.67
2022-11-24T19:31:16.296Z,6.30
2022-11-24T19:33:44.991Z,6.30
2022-11-24T19:36:14.816Z,7.30
2022-11-24T19:38:43.310Z,7.20
2022-11-24T19:41:14.471Z,6.93
2022-11-24T19:43:42.737Z,7.10
2022-11-24T19:46:12.174Z,8.67
2022-11-24T19:48:42.949Z,7.30
2022-11-24T19:51:13.824Z,7.80
2022-11-24T19:53:42.059Z,7.20
2022-11-24T19:56:13.416Z,6.83
2022-11-24T19:58:42.069Z,5.53
2022-11-24T20:01:11.841Z,5.53
2022-11-24T20:03:40.346Z,6.97
2022-11-24T20:06:10.748Z,6.73
2022-11-24T20:08:39.888Z,7.50
2022-11-24T20:11:09.576Z,6.37
2022-11-24T20:13:40.168Z,7.87
2022-11-24T20:16:11.034Z,7.80
2022-11-24T20:18:42.185Z,10.27
2022-11-24T20:21:12.359Z,10.10
2022-11-24T20:23:41.172Z,7.83
2022-11-24T20:26:11.968Z,7.43
2022-11-24T20:28:41.505Z,8.60
2022-11-24T20:31:11.558Z,10.13
2022-11-24T20:33:39.770Z,9.63
2022-11-24T20:36:10.220Z,9.57
2022-11-24T20:38:39.083Z,9.23
2022-11-24T20:41:09.483Z,9.40
2022-11-24T20:43:37.655Z,8.23
2022-11-24T20:46:09.082Z,7.13
2022-11-24T20:48:37.759Z,7.20
2022-11-24T20:51:06.592Z,6.80
2022-11-24T20:53:34.796Z,7.20
2022-11-24T20:56:06.224Z,6.70
2022-11-24T20:58:35.376Z,8.47
2022-11-24T21:01:09.561Z,7.33
2022-11-24T21:03:42.844Z,7.70
2022-11-24T21:06:12.506Z,8.57
2022-11-24T21:08:41.979Z,9.00
2022-11-24T21:11:11.432Z,7.30
2022-11-24T21:13:41.112Z,7.20
2022-11-24T21:16:14.811Z,8.33
2022-11-24T21:18:43.478Z,7.37
2022-11-24T21:21:11.504Z,7.10
2022-11-24T21:23:39.440Z,7.30
2022-11-24T21:26:13.092Z,8.00
2022-11-24T21:28:44.800Z,7.47
2022-11-24T21:31:17.077Z,7.47
2022-11-24T21:33:46.944Z,6.20
2022-11-24T21:36:16.248Z,6.40
2022-11-24T21:38:44.377Z,5.47
2022-11-24T21:41:13.971Z,5.40
2022-11-24T21:43:41.921Z,4.93
2022-11-24T21:46:11.686Z,5.20
2022-11-24T21:48:42.038Z,4.70
2022-11-24T21:51:13.586Z,5.63
2022-11-24T21:53:42.131Z,4.23
2022-11-24T21:56:13.045Z,4.90
2022-11-24T21:58:46.617Z,5.30
2022-11-24T22:01:15.457Z,4.70
2022-11-24T22:03:45.714Z,4.87
2022-11-24T22:06:14.279Z,4.80
2022-11-24T22:08:42.417Z,4.50
2022-11-24T22:11:13.288Z,4.73
2022-11-24T22:13:41.898Z,5.30
2022-11-24T22:16:12.070Z,4.70
2022-11-24T22:18:41.140Z,4.93
2022-11-24T22:21:14.583Z,5.67
2022-11-24T22:23:42.999Z,6.10
2022-11-24T22:26:13.975Z,4.83
2022-11-24T22:28:42.390Z,6.30
2022-11-24T22:31:13.324Z,6.20
2022-11-24T22:33:41.383Z,5.93
2022-11-24T22:36:12.018Z,5.37
2022-11-24T22:38:40.447Z,5.57
2022-11-24T22:41:09.864Z,4.90
2022-11-24T22:43:39.203Z,5.10
2022-11-24T22:46:08.568Z,5.00
2022-11-24T22:48:36.535Z,6.00
2022-11-24T22:51:06.064Z,4.90
2022-11-24T22:53:35.588Z,4.63
2022-11-24T22:56:04.156Z,4.30
2022-11-24T22:58:32.331Z,4.03
2022-11-24T23:01:06.124Z,4.10
2022-11-24T23:03:34.669Z,4.40
2022-11-24T23:06:03.012Z,4.37
2022-11-24T23:08:33.001Z,3.90
2022-11-24T23:11:03.588Z,4.37
2022-11-24T23:13:31.628Z,3.90
2022-11-24T23:16:03.489Z,4.07
2022-11-24T23:18:31.653Z,4.47
2022-11-24T23:21:06.580Z,4.00
2022-11-24T23:23:34.916Z,3.37
2022-11-24T23:26:06.137Z,2.90
2022-11-24T23:28:34.267Z,2.63
2022-11-24T23:31:03.947Z,2.80
2022-11-24T23:33:33.061Z,3.13
2022-11-24T23:36:02.024Z,2.90
2022-11-24T23:38:32.638Z,2.70
2022-11-24T23:41:03.992Z,3.43
2022-11-24T23:43:33.533Z,2.80
2022-11-24T23:46:04.789Z,3.13
2022-11-24T23:48:33.267Z,3.00
2022-11-24T23:51:05.432Z,3.13
2022-11-24T23:53:34.138Z,3.23
2022-11-24T23:56:02.103Z,2.63
2022-11-24T23:58:30.742Z,2.87
